Time;durP1;ratioP1;P1;durP2;ratioP2;P2;SDS_P1;SDS_P2;PMS_P1;PMS_P2;Temp;Humidity;BMP_temperature;BMP_pressure;BME280_temperature;BME280_humidity;BME280_pressure;Samples;Min_cycle;Max_cycle;Signal;HPM_P1;HPM_P2
2021/09/01 00:00:43;;;;;;;8.23;5.83;;;18.10;99.90;;;;;;6232612;23;20500;-89
2021/09/01 00:03:10;;;;;;;10.10;7.00;;;18.10;99.90;;;;;;6230035;22;20452;-88
2021/09/01 00:05:37;;;;;;;9.70;6.60;;;18.00;99.90;;;;;;6215729;23;20479;-86
2021/09/01 00:08:04;;;;;;;10.40;6.70;;;18.00;99.90;;;;;;6211737;23;20964;-86
2021/09/01 00:10:31;;;;;;;9.47;7.33;;;18.00;99.90;;;;;;6208676;23;20412;-86
2021/09/01 00:12:57;;;;;;;10.10;5.90;;;17.90;99.90;;;;;;6207268;23;20896;-87
2021/09/01 00:15:24;;;;;;;8.97;6.33;;;17.90;99.90;;;;;;6207638;23;20413;-86
2021/09/01 00:17:51;;;;;;;7.30;6.50;;;17.80;99.90;;;;;;6209576;23;20472;-87
2021/09/01 00:20:18;;;;;;;14.03;6.87;;;17.80;99.90;;;;;;6210543;23;20413;-86
2021/09/01 00:22:45;;;;;;;7.50;6.50;;;17.80;99.90;;;;;;6212900;23;20444;-86
2021/09/01 00:25:12;;;;;;;9.60;6.37;;;17.80;99.90;;;;;;6217333;23;20413;-87
2021/09/01 00:27:39;;;;;;;9.80;6.57;;;17.80;99.90;;;;;;6212294;23;20487;-87
2021/09/01 00:30:06;;;;;;;13.00;8.77;;;17.80;99.90;;;;;;6214701;23;20515;-86
2021/09/01 00:32:33;;;;;;;15.10;7.37;;;17.80;99.90;;;;;;6215357;23;20405;-85
2021/09/01 00:35:00;;;;;;;15.33;7.53;;;17.70;99.90;;;;;;6213239;23;20405;-85
2021/09/01 00:37:27;;;;;;;11.07;6.80;;;17.70;99.90;;;;;;6212535;23;20437;-88
2021/09/01 00:39:54;;;;;;;10.07;6.40;;;17.70;99.90;;;;;;6211934;23;20401;-87
2021/09/01 00:42:20;;;;;;;13.53;6.23;;;17.60;99.90;;;;;;6211057;23;20524;-84
2021/09/01 00:44:47;;;;;;;13.23;7.13;;;17.60;99.90;;;;;;6209815;23;20490;-85
2021/09/01 00:47:16;;;;;;;10.93;7.23;;;17.50;99.90;;;;;;6212834;23;20833;-85
2021/09/01 00:49:44;;;;;;;11.10;6.83;;;17.50;99.90;;;;;;6213503;23;20425;-86
2021/09/01 00:52:13;;;;;;;14.40;8.07;;;17.40;99.90;;;;;;6214837;23;20423;-86
2021/09/01 00:54:41;;;;;;;13.50;7.60;;;17.40;99.90;;;;;;6221644;23;20409;-87
2021/09/01 00:57:09;;;;;;;9.80;7.57;;;17.40;99.90;;;;;;6215395;23;20440;-85
2021/09/01 00:59:41;;;;;;;11.73;7.20;;;17.40;99.90;;;;;;6213714;23;20409;-85
2021/09/01 01:02:08;;;;;;;10.63;7.47;;;17.50;99.90;;;;;;6214550;23;20520;-86
2021/09/01 01:04:38;;;;;;;9.03;7.23;;;17.50;99.90;;;;;;6211436;23;20476;-84
2021/09/01 01:07:06;;;;;;;11.17;7.80;;;17.50;99.90;;;;;;6211267;23;20429;-86
2021/09/01 01:09:38;;;;;;;9.30;7.60;;;17.50;99.90;;;;;;6215615;23;20484;-86
2021/09/01 01:12:08;;;;;;;10.90;8.00;;;17.50;99.90;;;;;;6216679;23;20493;-85
2021/09/01 01:14:44;;;;;;;10.83;7.27;;;17.40;99.90;;;;;;6211403;23;20511;-85
2021/09/01 01:17:13;;;;;;;10.50;7.80;;;17.40;99.90;;;;;;6211033;23;20544;-88
2021/09/01 01:19:45;;;;;;;16.50;8.60;;;17.50;99.90;;;;;;6213678;23;20406;-83
2021/09/01 01:22:14;;;;;;;10.40;8.07;;;17.50;99.90;;;;;;6228403;23;20481;-87
2021/09/01 01:24:57;;;;;;;11.27;7.83;;;17.50;99.90;;;;;;6218952;23;20444;-87
2021/09/01 01:27:42;;;;;;;14.60;8.00;;;17.60;99.90;;;;;;6213310;23;20445;-85
2021/09/01 01:30:16;;;;;;;13.13;8.20;;;17.50;99.90;;;;;;6217367;23;20994;-86
2021/09/01 01:32:46;;;;;;;14.93;8.20;;;17.50;99.90;;;;;;6212888;23;20416;-86
2021/09/01 01:35:34;;;;;;;9.20;7.83;;;17.50;99.90;;;;;;6214654;23;20413;-88
2021/09/01 01:38:04;;;;;;;10.37;7.00;;;17.50;99.90;;;;;;6211776;23;20435;-86
2021/09/01 01:40:33;;;;;;;12.40;8.43;;;17.60;99.90;;;;;;6219190;23;20402;-87
2021/09/01 01:43:00;;;;;;;11.43;7.97;;;17.50;99.90;;;;;;6216293;23;20440;-85
2021/09/01 01:45:35;;;;;;;12.43;8.87;;;17.60;99.90;;;;;;6214708;23;20411;-86
2021/09/01 01:48:03;;;;;;;15.70;7.70;;;17.60;99.90;;;;;;6215584;23;20479;-88
2021/09/01 01:50:30;;;;;;;15.33;8.60;;;17.60;99.90;;;;;;6216040;23;20414;-86
2021/09/01 01:52:57;;;;;;;10.17;8.60;;;17.60;99.90;;;;;;6219981;22;20406;-88
2021/09/01 01:55:23;;;;;;;11.33;9.30;;;17.50;99.90;;;;;;6237411;22;20420;-85
2021/09/01 01:57:50;;;;;;;13.03;8.70;;;17.50;99.90;;;;;;6235557;22;20546;-87
2021/09/01 02:00:17;;;;;;;11.93;8.27;;;17.60;99.90;;;;;;6225931;22;20419;-86
2021/09/01 02:02:44;;;;;;;12.07;9.23;;;17.60;99.90;;;;;;6214930;23;20444;-86
2021/09/01 02:05:11;;;;;;;12.83;8.73;;;17.70;99.90;;;;;;6216550;23;20493;-86
2021/09/01 02:07:39;;;;;;;9.30;8.27;;;17.70;99.90;;;;;;6213052;23;20437;-85
2021/09/01 02:10:10;;;;;;;12.50;7.27;;;17.60;99.90;;;;;;6212447;23;20400;-85
2021/09/01 02:12:39;;;;;;;9.90;8.20;;;17.70;99.90;;;;;;6214058;23;20402;-86
2021/09/01 02:15:07;;;;;;;14.73;9.17;;;17.70;99.90;;;;;;6213727;23;20409;-84
2021/09/01 02:17:35;;;;;;;13.53;9.67;;;17.70;99.90;;;;;;6212807;23;20467;-85
2021/09/01 02:20:03;;;;;;;15.70;9.60;;;17.70;99.90;;;;;;6213450;23;20405;-84
2021/09/01 02:22:30;;;;;;;9.93;8.40;;;17.70;99.90;;;;;;6214710;23;20527;-87
2021/09/01 02:24:57;;;;;;;15.23;9.03;;;17.70;99.90;;;;;;6213989;23;20413;-86
2021/09/01 02:27:24;;;;;;;13.77;9.13;;;17.60;99.90;;;;;;6210734;23;20440;-86
2021/09/01 02:29:50;;;;;;;10.77;8.20;;;17.50;99.90;;;;;;6212432;23;20428;-85
2021/09/01 02:32:18;;;;;;;13.20;9.53;;;17.50;99.90;;;;;;6211329;23;20618;-84
2021/09/01 02:34:45;;;;;;;12.67;10.10;;;17.50;99.90;;;;;;6212366;23;20412;-84
2021/09/01 02:37:11;;;;;;;12.57;9.50;;;17.50;99.90;;;;;;6211546;23;20504;-84
2021/09/01 02:39:38;;;;;;;11.17;8.40;;;17.50;99.90;;;;;;6210637;23;20416;-84
2021/09/01 02:42:05;;;;;;;19.50;8.87;;;17.40;99.90;;;;;;6223366;22;20492;-88
2021/09/01 02:44:32;;;;;;;16.30;8.70;;;17.50;99.90;;;;;;6232523;22;20701;-88
2021/09/01 02:46:59;;;;;;;13.33;9.10;;;17.50;99.90;;;;;;6236476;22;20421;-88
2021/09/01 02:49:25;;;;;;;17.97;9.90;;;17.70;99.90;;;;;;6236103;22;20409;-87
2021/09/01 02:51:52;;;;;;;14.13;9.10;;;17.70;99.90;;;;;;6236588;22;20605;-84
2021/09/01 02:54:19;;;;;;;14.40;8.43;;;17.70;99.90;;;;;;6219595;23;20610;-87
2021/09/01 02:56:46;;;;;;;17.03;8.60;;;17.70;99.90;;;;;;6212083;23;20413;-84
2021/09/01 02:59:13;;;;;;;14.03;9.90;;;17.60;99.90;;;;;;6214157;23;20813;-85
2021/09/01 03:01:41;;;;;;;15.87;8.60;;;17.60;99.90;;;;;;6213820;23;20509;-84
2021/09/01 03:04:08;;;;;;;12.30;8.50;;;17.50;99.90;;;;;;6211701;23;20444;-86
2021/09/01 03:06:35;;;;;;;13.90;8.97;;;17.50;99.90;;;;;;6212222;23;20401;-87
2021/09/01 03:09:01;;;;;;;14.60;8.53;;;17.50;99.90;;;;;;6212276;23;20424;-86
2021/09/01 03:11:28;;;;;;;11.57;8.73;;;17.50;99.90;;;;;;6212392;23;20409;-85
2021/09/01 03:13:55;;;;;;;16.90;9.07;;;17.50;99.90;;;;;;6211740;23;20432;-86
2021/09/01 03:16:22;;;;;;;14.43;8.60;;;17.50;99.90;;;;;;6213749;23;20413;-86
2021/09/01 03:18:48;;;;;;;14.10;9.17;;;17.60;99.90;;;;;;6213553;23;20508;-87
2021/09/01 03:21:15;;;;;;;12.83;9.10;;;17.60;99.90;;;;;;6214203;23;20409;-85
2021/09/01 03:23:42;;;;;;;17.20;8.20;;;17.70;99.90;;;;;;6207551;23;20439;-87
2021/09/01 03:26:09;;;;;;;16.63;10.00;;;17.60;99.90;;;;;;6229983;22;20405;-88
2021/09/01 03:28:35;;;;;;;11.23;9.50;;;17.70;99.90;;;;;;6232834;22;20452;-88
2021/09/01 03:31:02;;;;;;;12.50;9.03;;;18.00;99.90;;;;;;6218626;22;20437;-87
2021/09/01 03:33:29;;;;;;;15.47;9.13;;;18.00;99.90;;;;;;6225373;23;20393;-87
2021/09/01 03:35:55;;;;;;;15.50;10.10;;;17.80;99.90;;;;;;6220758;23;20420;-84
2021/09/01 03:38:22;;;;;;;12.07;9.63;;;17.80;99.90;;;;;;6211079;23;21058;-85
2021/09/01 03:40:49;;;;;;;18.83;10.00;;;18.00;99.90;;;;;;6213376;23;20416;-86
2021/09/01 03:43:15;;;;;;;10.90;8.53;;;17.90;99.90;;;;;;6211562;23;20447;-85
2021/09/01 03:45:42;;;;;;;11.40;8.60;;;17.60;99.90;;;;;;6212536;23;20406;-85
2021/09/01 03:48:09;;;;;;;13.93;8.60;;;17.60;99.90;;;;;;6217103;23;20549;-87
2021/09/01 03:50:36;;;;;;;12.43;8.20;;;17.50;99.90;;;;;;6230191;22;20405;-87
2021/09/01 03:53:02;;;;;;;8.20;7.33;;;17.50;99.90;;;;;;6229078;23;20409;-85
2021/09/01 03:55:29;;;;;;;10.03;7.90;;;17.50;99.90;;;;;;6225230;23;20444;-87
2021/09/01 03:57:56;;;;;;;12.93;8.80;;;17.60;99.90;;;;;;6219871;23;20634;-85
2021/09/01 04:00:22;;;;;;;13.17;9.10;;;17.50;99.90;;;;;;6214320;23;20921;-85
2021/09/01 04:02:49;;;;;;;10.30;7.53;;;17.50;99.90;;;;;;6210875;23;20408;-86
2021/09/01 04:05:16;;;;;;;11.77;8.43;;;17.60;99.90;;;;;;6212259;23;20413;-87
2021/09/01 04:07:43;;;;;;;14.80;8.33;;;17.60;99.90;;;;;;6213479;23;20456;-87
2021/09/01 04:10:10;;;;;;;12.10;8.70;;;17.60;99.90;;;;;;6214982;23;20461;-84
2021/09/01 04:12:37;;;;;;;10.17;7.67;;;17.60;99.90;;;;;;6211025;23;20415;-87
2021/09/01 04:15:05;;;;;;;11.63;7.50;;;17.60;99.90;;;;;;6217045;23;20495;-87
2021/09/01 04:17:32;;;;;;;9.97;7.40;;;17.60;99.90;;;;;;6215650;23;20488;-85
2021/09/01 04:19:59;;;;;;;13.47;7.80;;;17.60;99.90;;;;;;6219394;23;20413;-86
2021/09/01 04:22:25;;;;;;;11.63;7.27;;;17.60;99.90;;;;;;6217038;23;20444;-87
2021/09/01 04:24:52;;;;;;;11.57;8.10;;;17.40;99.90;;;;;;6217984;23;20447;-86
2021/09/01 04:27:19;;;;;;;9.83;7.20;;;17.50;99.90;;;;;;6216266;23;20467;-87
2021/09/01 04:29:46;;;;;;;9.90;7.30;;;17.50;99.90;;;;;;6228357;23;20389;-87
2021/09/01 04:32:13;;;;;;;13.97;7.17;;;17.50;99.90;;;;;;6234465;23;20455;-87
2021/09/01 04:34:40;;;;;;;11.73;7.40;;;17.50;99.90;;;;;;6234543;22;20468;-88
2021/09/01 04:37:09;;;;;;;10.07;6.97;;;17.50;99.90;;;;;;6233619;23;20480;-88
2021/09/01 04:39:36;;;;;;;11.80;6.87;;;17.60;99.90;;;;;;6224938;23;20871;-87
2021/09/01 04:42:04;;;;;;;10.70;7.47;;;17.60;99.90;;;;;;6216979;23;20412;-88
2021/09/01 04:44:32;;;;;;;9.80;6.70;;;17.50;99.90;;;;;;6214317;23;20951;-89
2021/09/01 04:46:59;;;;;;;8.80;6.60;;;17.50;99.90;;;;;;6215636;23;20975;-87
2021/09/01 04:49:26;;;;;;;10.40;6.50;;;17.50;99.90;;;;;;6217349;23;20431;-88
2021/09/01 04:51:53;;;;;;;12.37;6.73;;;17.50;99.90;;;;;;6215698;23;20415;-87
2021/09/01 04:54:20;;;;;;;10.40;6.37;;;17.40;99.90;;;;;;6214415;23;20986;-87
2021/09/01 04:56:47;;;;;;;8.20;6.70;;;17.40;99.90;;;;;;6215902;23;20441;-86
2021/09/01 04:59:14;;;;;;;15.70;7.57;;;17.40;99.90;;;;;;6221213;22;20401;-88
2021/09/01 05:01:40;;;;;;;9.60;7.00;;;17.40;99.90;;;;;;6230100;22;20490;-87
2021/09/01 05:04:07;;;;;;;17.23;6.80;;;17.50;99.90;;;;;;6220653;23;20755;-88
2021/09/01 05:06:34;;;;;;;11.57;6.27;;;17.50;99.90;;;;;;6226602;23;20412;-87
2021/09/01 05:09:01;;;;;;;7.27;6.47;;;17.40;99.90;;;;;;6234319;22;20436;-86
2021/09/01 05:11:28;;;;;;;12.20;6.73;;;17.40;99.90;;;;;;6235703;22;20417;-86
2021/09/01 05:13:55;;;;;;;9.40;6.40;;;17.50;99.90;;;;;;6235494;23;20418;-87
2021/09/01 05:16:21;;;;;;;9.40;6.63;;;17.50;99.90;;;;;;6228077;23;20401;-87
2021/09/01 05:18:49;;;;;;;11.30;6.70;;;17.50;99.90;;;;;;6220871;23;20436;-88
2021/09/01 05:21:18;;;;;;;9.90;6.97;;;17.50;99.90;;;;;;6224594;23;20419;-88
2021/09/01 05:23:45;;;;;;;11.70;6.73;;;17.50;99.90;;;;;;6232170;23;20425;-88
2021/09/01 05:26:19;;;;;;;14.33;7.10;;;17.40;99.90;;;;;;6229770;23;20417;-86
2021/09/01 05:28:48;;;;;;;11.93;8.37;;;17.90;99.90;;;;;;6215425;23;20802;-85
2021/09/01 05:31:32;;;;;;;13.63;8.40;;;17.80;99.90;;;;;;6218976;23;20398;-86
2021/09/01 05:34:03;;;;;;;13.77;8.27;;;17.70;99.90;;;;;;6224816;23;20401;-85
2021/09/01 05:36:31;;;;;;;12.80;8.13;;;17.90;99.90;;;;;;6216042;23;20416;-85
2021/09/01 05:39:00;;;;;;;12.63;8.37;;;18.00;99.90;;;;;;6215368;23;20421;-86
2021/09/01 05:41:29;;;;;;;9.30;7.63;;;17.80;99.90;;;;;;6216982;23;20421;-86
2021/09/01 05:43:58;;;;;;;11.60;9.40;;;17.70;99.90;;;;;;6213607;23;20441;-86
2021/09/01 05:46:25;;;;;;;11.63;8.40;;;18.00;99.90;;;;;;6213758;23;20500;-86
2021/09/01 05:48:52;;;;;;;12.30;8.50;;;17.90;99.90;;;;;;6215363;23;20507;-86
2021/09/01 05:51:19;;;;;;;17.17;8.50;;;17.80;99.90;;;;;;6216205;23;20895;-87
2021/09/01 05:53:46;;;;;;;16.57;10.23;;;17.70;99.90;;;;;;6217128;23;20405;-88
2021/09/01 05:56:18;;;;;;;12.90;8.87;;;17.70;99.90;;;;;;6213708;23;20412;-87
2021/09/01 05:58:50;;;;;;;11.00;8.33;;;17.70;99.90;;;;;;6211310;23;20445;-86
2021/09/01 06:01:25;;;;;;;14.73;9.07;;;17.90;99.90;;;;;;6217476;23;20393;-87
2021/09/01 06:03:57;;;;;;;15.97;9.57;;;17.70;99.90;;;;;;6215472;23;20496;-87
2021/09/01 06:06:27;;;;;;;13.47;9.67;;;17.60;99.90;;;;;;6215828;23;20488;-87
2021/09/01 06:08:58;;;;;;;13.97;9.67;;;17.50;99.90;;;;;;6212820;23;20502;-87
2021/09/01 06:11:27;;;;;;;12.00;9.33;;;17.50;99.90;;;;;;6218709;23;20461;-88
2021/09/01 06:13:54;;;;;;;14.17;9.73;;;17.60;99.90;;;;;;6218008;23;20443;-86
2021/09/01 06:16:21;;;;;;;14.60;9.73;;;17.50;99.90;;;;;;6216753;23;20894;-88
2021/09/01 06:18:48;;;;;;;17.63;8.50;;;17.50;99.90;;;;;;6216022;23;20429;-87
2021/09/01 06:21:17;;;;;;;15.13;9.20;;;17.60;99.90;;;;;;6216595;23;20501;-88
2021/09/01 06:23:44;;;;;;;14.47;8.97;;;17.60;99.90;;;;;;6216952;23;20527;-87
2021/09/01 06:26:11;;;;;;;13.93;9.20;;;17.50;99.90;;;;;;6217205;23;20417;-87
2021/09/01 06:28:40;;;;;;;11.93;8.03;;;17.50;99.90;;;;;;6216981;23;20994;-88
2021/09/01 06:31:07;;;;;;;13.57;8.43;;;17.50;99.90;;;;;;6220124;23;20415;-88
2021/09/01 06:33:35;;;;;;;10.20;7.37;;;17.60;99.90;;;;;;6236239;23;20421;-87
2021/09/01 06:36:02;;;;;;;14.10;8.77;;;17.60;99.90;;;;;;6235728;22;20401;-87
2021/09/01 06:38:29;;;;;;;15.87;9.10;;;17.50;99.90;;;;;;6230937;23;20524;-88
2021/09/01 06:40:56;;;;;;;11.77;8.50;;;17.50;99.90;;;;;;6218102;23;20409;-87
2021/09/01 06:43:23;;;;;;;11.40;7.67;;;17.90;99.90;;;;;;6219600;23;20492;-88
2021/09/01 06:45:50;;;;;;;12.13;6.97;;;17.80;99.90;;;;;;6231645;22;20508;-89
2021/09/01 06:48:18;;;;;;;11.23;7.27;;;17.70;99.90;;;;;;6222706;23;20433;-88
2021/09/01 06:50:45;;;;;;;12.33;7.43;;;17.70;99.90;;;;;;6229754;23;20421;-87
2021/09/01 06:53:12;;;;;;;11.37;7.70;;;17.60;99.90;;;;;;6232286;23;20496;-86
2021/09/01 06:55:39;;;;;;;10.97;8.07;;;17.70;99.90;;;;;;6234667;23;20396;-85
2021/09/01 06:58:14;;;;;;;10.10;6.97;;;17.70;99.90;;;;;;6232967;23;20462;-88
2021/09/01 07:00:42;;;;;;;16.70;8.73;;;18.00;99.90;;;;;;6228925;23;20416;-86
2021/09/01 07:03:09;;;;;;;12.00;7.87;;;18.10;99.90;;;;;;6223619;23;20444;-88
2021/09/01 07:05:36;;;;;;;10.00;7.07;;;18.10;99.90;;;;;;6224998;23;20503;-86
2021/09/01 07:08:12;;;;;;;15.60;10.57;;;18.00;99.90;;;;;;6224264;23;20433;-88
2021/09/01 07:10:40;;;;;;;11.77;7.60;;;17.80;99.90;;;;;;6233771;23;20439;-87
2021/09/01 07:13:07;;;;;;;14.30;7.67;;;18.10;99.90;;;;;;6236168;23;20401;-87
2021/09/01 07:15:35;;;;;;;11.20;7.77;;;18.30;99.90;;;;;;6235788;23;20412;-88
2021/09/01 07:18:02;;;;;;;9.40;6.60;;;18.00;99.90;;;;;;6236110;22;20501;-88
2021/09/01 07:20:29;;;;;;;12.60;7.23;;;17.80;99.90;;;;;;6235853;23;20424;-86
2021/09/01 07:22:56;;;;;;;14.07;8.00;;;17.70;99.90;;;;;;6234441;23;20409;-88
2021/09/01 07:25:23;;;;;;;11.97;8.20;;;17.80;99.90;;;;;;6223492;23;20528;-86
2021/09/01 07:27:50;;;;;;;14.50;7.80;;;18.20;99.90;;;;;;6218448;23;20457;-86
2021/09/01 07:30:17;;;;;;;10.57;7.30;;;18.30;99.90;;;;;;6218040;23;20423;-87
2021/09/01 07:32:44;;;;;;;10.70;7.23;;;18.20;99.90;;;;;;6218064;23;20448;-86
2021/09/01 07:35:14;;;;;;;8.50;7.23;;;18.30;99.90;;;;;;6218412;23;20767;-84
2021/09/01 07:37:45;;;;;;;10.80;7.20;;;18.20;99.90;;;;;;6221291;23;20450;-85
2021/09/01 07:40:15;;;;;;;7.77;6.50;;;18.00;99.90;;;;;;6221834;23;20404;-88
2021/09/01 07:42:45;;;;;;;11.67;7.60;;;18.10;99.90;;;;;;6219005;23;20976;-87
2021/09/01 07:45:30;;;;;;;10.03;6.00;;;18.30;99.90;;;;;;6216121;23;20627;-87
2021/09/01 07:48:07;;;;;;;8.87;7.00;;;18.10;99.90;;;;;;6220044;23;20486;-87
2021/09/01 07:50:34;;;;;;;8.73;6.30;;;18.00;99.90;;;;;;6219473;23;20540;-87
2021/09/01 07:53:02;;;;;;;13.50;6.30;;;18.00;99.90;;;;;;6218901;23;20444;-85
2021/09/01 07:55:29;;;;;;;10.37;7.20;;;17.90;99.90;;;;;;6222359;23;20451;-88
2021/09/01 07:57:59;;;;;;;8.53;6.73;;;18.00;99.90;;;;;;6217617;23;20460;-86
2021/09/01 08:00:27;;;;;;;10.60;7.50;;;18.00;99.90;;;;;;6218294;23;20528;-87
2021/09/01 08:02:54;;;;;;;9.90;6.90;;;18.00;99.90;;;;;;6219598;23;20425;-87
2021/09/01 08:05:22;;;;;;;9.37;6.40;;;18.00;99.90;;;;;;6218312;23;20440;-88
2021/09/01 08:07:49;;;;;;;13.30;6.50;;;18.00;99.90;;;;;;6219169;23;20467;-88
2021/09/01 08:10:19;;;;;;;12.93;8.13;;;18.20;99.90;;;;;;6216190;23;20427;-87
2021/09/01 08:12:48;;;;;;;10.10;6.80;;;18.10;99.90;;;;;;6218531;23;20408;-87
2021/09/01 08:15:18;;;;;;;11.43;6.80;;;18.20;99.90;;;;;;6218849;23;20416;-87
2021/09/01 08:17:47;;;;;;;11.83;6.87;;;18.20;99.90;;;;;;6217425;23;20433;-88
2021/09/01 08:20:18;;;;;;;12.03;7.13;;;18.40;99.90;;;;;;6218333;23;20420;-88
2021/09/01 08:22:44;;;;;;;9.10;6.20;;;18.40;99.90;;;;;;6217476;23;20519;-86
2021/09/01 08:25:12;;;;;;;9.10;6.30;;;18.30;99.90;;;;;;6216369;23;20436;-85
2021/09/01 08:27:39;;;;;;;9.90;7.23;;;18.20;99.90;;;;;;6219335;23;20436;-88
2021/09/01 08:30:07;;;;;;;9.77;7.03;;;18.20;99.90;;;;;;6218807;23;20425;-85
2021/09/01 08:32:43;;;;;;;10.43;6.60;;;18.30;99.90;;;;;;6217599;23;20757;-87
2021/09/01 08:35:10;;;;;;;8.90;6.97;;;18.40;99.90;;;;;;6221100;23;20448;-87
2021/09/01 08:37:38;;;;;;;10.67;7.87;;;18.40;99.90;;;;;;6234578;23;20448;-87
2021/09/01 08:40:07;;;;;;;12.77;7.30;;;18.40;99.90;;;;;;6237816;23;20411;-85
2021/09/01 08:42:37;;;;;;;7.50;6.47;;;18.40;99.90;;;;;;6233076;23;20412;-86
2021/09/01 08:45:05;;;;;;;11.33;6.73;;;18.50;99.90;;;;;;6218993;23;20441;-86
2021/09/01 08:47:35;;;;;;;9.20;7.00;;;18.90;99.90;;;;;;6218143;23;20436;-87
2021/09/01 08:50:05;;;;;;;16.80;11.80;;;18.90;99.60;;;;;;6219173;23;20479;-86
2021/09/01 08:52:34;;;;;;;10.80;8.23;;;18.80;99.60;;;;;;6217448;23;20467;-87
2021/09/01 08:55:01;;;;;;;13.83;8.97;;;18.70;99.90;;;;;;6217566;23;20401;-87
2021/09/01 08:57:31;;;;;;;15.30;8.20;;;18.60;99.90;;;;;;6215536;23;20463;-87
2021/09/01 08:59:58;;;;;;;14.97;9.30;;;18.80;99.90;;;;;;6219502;23;20967;-88
2021/09/01 09:02:29;;;;;;;13.70;8.60;;;18.90;99.90;;;;;;6217448;23;20409;-86
2021/09/01 09:04:57;;;;;;;49.33;16.00;;;18.70;99.70;;;;;;6217731;23;20448;-85
2021/09/01 09:07:25;;;;;;;40.97;13.40;;;18.60;99.70;;;;;;6216473;23;20496;-84
2021/09/01 09:09:52;;;;;;;14.13;9.40;;;18.60;99.90;;;;;;6216666;23;20490;-85
2021/09/01 09:12:31;;;;;;;17.80;10.33;;;18.70;99.90;;;;;;6221880;23;20436;-86
2021/09/01 09:14:59;;;;;;;13.83;9.90;;;19.20;98.80;;;;;;6236488;22;20405;-87
2021/09/01 09:17:35;;;;;;;12.80;10.77;;;19.30;98.70;;;;;;6237338;22;20425;-89
2021/09/01 09:20:07;;;;;;;17.17;9.93;;;19.10;98.60;;;;;;6236437;22;20419;-87
2021/09/01 09:22:41;;;;;;;14.27;11.90;;;18.90;99.00;;;;;;6232959;23;20409;-86
2021/09/01 09:25:27;;;;;;;16.17;10.47;;;18.90;99.60;;;;;;6220395;23;20440;-87
2021/09/01 09:28:06;;;;;;;18.77;12.93;;;19.00;99.40;;;;;;6218926;23;20987;-87
2021/09/01 09:30:35;;;;;;;15.00;10.90;;;19.10;98.60;;;;;;6221253;23;20479;-87
2021/09/01 09:33:05;;;;;;;16.27;11.10;;;19.10;98.80;;;;;;6218766;23;20411;-88
2021/09/01 09:35:57;;;;;;;14.03;11.83;;;19.30;98.40;;;;;;6219011;23;20488;-87
2021/09/01 09:38:37;;;;;;;15.43;11.50;;;19.20;98.20;;;;;;6219061;23;20464;-87
2021/09/01 09:41:20;;;;;;;14.67;11.23;;;19.00;98.60;;;;;;6218777;23;20437;-88
2021/09/01 09:43:49;;;;;;;19.00;11.93;;;18.80;99.00;;;;;;6218600;23;20409;-87
2021/09/01 09:46:19;;;;;;;17.50;12.00;;;18.80;99.30;;;;;;6217369;23;20472;-87
2021/09/01 09:48:47;;;;;;;17.63;11.77;;;19.20;99.20;;;;;;6217820;23;20915;-88
2021/09/01 09:51:16;;;;;;;16.10;11.83;;;19.00;98.70;;;;;;6216809;23;20413;-88
2021/09/01 09:53:47;;;;;;;14.97;12.30;;;18.90;98.80;;;;;;6218915;23;20409;-87
2021/09/01 09:56:18;;;;;;;19.80;14.80;;;18.90;98.70;;;;;;6217574;23;20623;-86
2021/09/01 09:58:48;;;;;;;19.67;13.70;;;19.30;97.70;;;;;;6216686;23;20990;-86
2021/09/01 10:01:17;;;;;;;21.27;15.57;;;19.10;97.60;;;;;;6214636;23;20479;-87
2021/09/01 10:03:46;;;;;;;16.60;13.27;;;19.00;97.70;;;;;;6217213;23;20416;-89
2021/09/01 10:06:18;;;;;;;17.20;12.37;;;18.80;97.40;;;;;;6214433;23;20445;-87
2021/09/01 10:08:48;;;;;;;22.80;14.67;;;18.80;97.70;;;;;;6215729;23;20463;-84
2021/09/01 10:11:17;;;;;;;18.93;13.83;;;18.60;97.80;;;;;;6217956;23;20441;-86
2021/09/01 10:13:47;;;;;;;16.73;13.40;;;19.10;97.70;;;;;;6215589;23;20972;-86
2021/09/01 10:16:21;;;;;;;19.13;13.20;;;19.20;97.20;;;;;;6215472;23;20420;-87
2021/09/01 10:19:09;;;;;;;17.43;12.73;;;19.00;97.10;;;;;;6215890;23;20443;-87
2021/09/01 10:21:44;;;;;;;16.70;14.27;;;18.80;97.30;;;;;;6215489;23;20413;-86
2021/09/01 10:24:29;;;;;;;16.57;13.90;;;18.90;98.00;;;;;;6215830;23;20409;-87
2021/09/01 10:27:07;;;;;;;16.90;13.60;;;18.80;97.60;;;;;;6219345;23;20542;-86
2021/09/01 10:29:59;;;;;;;17.40;14.50;;;18.80;97.80;;;;;;6217917;23;20425;-87
2021/09/01 10:32:46;;;;;;;15.33;12.60;;;18.80;97.60;;;;;;6216261;23;20416;-87
2021/09/01 10:35:16;;;;;;;19.23;12.60;;;18.90;97.70;;;;;;6217204;23;20417;-87
2021/09/01 10:38:06;;;;;;;;;;;;;;;;;;;;;
2021/09/01 10:40:53;;;;;;;15.90;12.40;;;18.80;97.60;;;;;;6218594;23;20947;-86
2021/09/01 10:43:21;;;;;;;16.43;11.27;;;18.70;97.70;;;;;;6217070;23;20740;-87
2021/09/01 10:45:49;;;;;;;15.90;12.67;;;18.70;98.10;;;;;;6214666;23;20942;-87
2021/09/01 10:48:17;;;;;;;20.40;12.90;;;18.80;98.20;;;;;;6216272;23;20496;-87
2021/09/01 10:50:46;;;;;;;17.40;12.57;;;19.40;97.60;;;;;;6215575;23;20413;-88
2021/09/01 10:53:26;;;;;;;16.60;11.60;;;19.60;96.30;;;;;;6214310;23;20405;-88
2021/09/01 10:56:06;;;;;;;15.77;11.90;;;19.30;96.50;;;;;;6216656;23;20420;-89
2021/09/01 10:58:35;;;;;;;16.87;11.60;;;19.10;96.90;;;;;;6216485;23;20452;-86
2021/09/01 11:01:11;;;;;;;15.83;12.50;;;19.00;97.20;;;;;;6215359;23;21241;-88
2021/09/01 11:03:49;;;;;;;16.47;12.40;;;19.10;97.20;;;;;;6216054;23;20405;-88
2021/09/01 11:06:26;;;;;;;15.03;11.13;;;19.10;97.00;;;;;;6215485;23;20487;-85
2021/09/01 11:08:59;;;;;;;18.20;13.87;;;19.10;97.40;;;;;;6218258;23;20504;-86
2021/09/01 11:11:39;;;;;;;17.60;13.70;;;19.60;96.50;;;;;;6221257;23;20790;-86
2021/09/01 11:14:07;;;;;;;16.87;11.50;;;19.60;96.10;;;;;;6234691;23;20401;-86
2021/09/01 11:16:34;;;;;;;21.40;18.23;;;19.40;96.10;;;;;;6239059;22;20397;-89
2021/09/01 11:19:08;;;;;;;14.47;10.20;;;19.60;96.40;;;;;;6236979;22;20417;-86
2021/09/01 11:21:44;;;;;;;12.63;9.80;;;19.60;96.60;;;;;;6221178;23;20441;-86
2021/09/01 11:24:14;;;;;;;16.23;9.73;;;19.50;97.60;;;;;;6221674;23;20409;-85
2021/09/01 11:26:41;;;;;;;14.27;10.13;;;19.90;97.20;;;;;;6220784;23;20444;-87
2021/09/01 11:29:11;;;;;;;13.70;10.00;;;19.80;96.70;;;;;;6221193;23;20405;-86
2021/09/01 11:31:50;;;;;;;15.07;10.60;;;19.50;97.30;;;;;;6223062;23;21057;-87
2021/09/01 11:34:19;;;;;;;14.17;10.20;;;19.20;97.70;;;;;;6222541;23;20405;-87
2021/09/01 11:36:46;;;;;;;16.30;10.30;;;19.10;98.20;;;;;;6223809;23;20749;-88
2021/09/01 11:39:15;;;;;;;13.53;10.20;;;19.00;98.70;;;;;;6224560;23;20436;-86
2021/09/01 11:41:45;;;;;;;16.93;12.00;;;19.00;99.30;;;;;;6222186;23;20406;-86
2021/09/01 11:44:13;;;;;;;16.30;11.10;;;19.30;99.30;;;;;;6222578;23;20510;-85
2021/09/01 11:46:41;;;;;;;14.53;10.70;;;19.20;99.10;;;;;;6221765;23;20445;-87
2021/09/01 11:49:16;;;;;;;16.00;11.27;;;19.10;99.10;;;;;;6222319;23;20409;-86
2021/09/01 11:51:45;;;;;;;23.30;12.60;;;19.50;99.00;;;;;;6223282;23;20467;-86
2021/09/01 11:54:14;;;;;;;20.00;12.50;;;19.80;98.10;;;;;;6221122;23;20749;-88
2021/09/01 11:56:50;;;;;;;17.20;12.37;;;19.50;98.10;;;;;;6231131;22;20428;-87
2021/09/01 11:59:18;;;;;;;17.20;11.77;;;19.30;98.50;;;;;;6235949;22;20405;-87
2021/09/01 12:01:52;;;;;;;15.27;11.50;;;19.30;98.70;;;;;;6236304;22;20822;-89
2021/09/01 12:04:23;;;;;;;18.30;14.13;;;19.30;98.80;;;;;;6235489;22;20424;-86
2021/09/01 12:07:11;;;;;;;17.03;14.40;;;19.30;98.80;;;;;;6235540;22;20476;-90
2021/09/01 12:09:39;;;;;;;20.80;14.43;;;19.40;98.40;;;;;;6236023;22;20429;-86
2021/09/01 12:12:13;;;;;;;20.03;15.57;;;19.80;97.60;;;;;;6235463;22;20481;-86
2021/09/01 12:14:43;;;;;;;20.50;14.30;;;20.00;96.80;;;;;;6236659;22;20401;-89
2021/09/01 12:17:21;;;;;;;20.63;15.63;;;19.70;97.20;;;;;;6224746;23;20444;-86
2021/09/01 12:19:56;;;;;;;17.80;13.97;;;19.30;97.40;;;;;;6214720;23;20419;-87
2021/09/01 12:22:36;;;;;;;17.77;15.03;;;19.20;97.80;;;;;;6214815;23;20411;-84
2021/09/01 12:25:09;;;;;;;17.87;14.10;;;19.20;98.10;;;;;;6218369;23;20454;-86
2021/09/01 12:28:11;;;;;;;18.13;14.17;;;19.20;98.50;;;;;;6218839;23;20433;-85
2021/09/01 12:30:50;;;;;;;19.10;13.37;;;19.60;98.20;;;;;;6221652;23;20404;-88
2021/09/01 12:33:23;;;;;;;16.37;12.20;;;19.50;98.20;;;;;;6223769;23;20461;-89
2021/09/01 12:36:00;;;;;;;19.10;14.50;;;19.50;98.40;;;;;;6219013;23;20436;-86
2021/09/01 12:38:28;;;;;;;18.83;13.63;;;19.40;98.70;;;;;;6221388;23;20436;-86
2021/09/01 12:40:56;;;;;;;15.67;12.60;;;19.40;98.50;;;;;;6221024;23;20409;-87
2021/09/01 12:43:23;;;;;;;19.17;13.27;;;19.30;98.50;;;;;;6219933;23;20516;-88
2021/09/01 12:46:05;;;;;;;14.43;11.70;;;19.30;98.80;;;;;;6223300;23;20441;-88
2021/09/01 12:48:35;;;;;;;19.07;12.90;;;19.30;99.50;;;;;;6223630;23;20831;-87